sensor_id;sensor_type;location;lat;lon;timestamp;temperature;humidity
53978;DHT22;39886;47.984;-1.586;2023-04-24T00:02:00;18.40;64.40
53978;DHT22;39886;47.984;-1.586;2023-04-24T00:04:26;18.40;64.40
53978;DHT22;39886;47.984;-1.586;2023-04-24T00:06:52;18.40;64.40
53978;DHT22;39886;47.984;-1.586;2023-04-24T00:09:22;18.40;64.40
53978;DHT22;39886;47.984;-1.586;2023-04-24T00:11:48;18.40;64.40
53978;DHT22;39886;47.984;-1.586;2023-04-24T00:14:14;18.30;64.40
53978;DHT22;39886;47.984;-1.586;2023-04-24T00:16:40;18.30;64.40
53978;DHT22;39886;47.984;-1.586;2023-04-24T00:19:06;18.30;64.40
53978;DHT22;39886;47.984;-1.586;2023-04-24T00:21:32;18.30;64.40
53978;DHT22;39886;47.984;-1.586;2023-04-24T00:23:58;18.30;64.40
53978;DHT22;39886;47.984;-1.586;2023-04-24T00:26:24;18.30;64.40
53978;DHT22;39886;47.984;-1.586;2023-04-24T00:28:49;18.30;64.40
53978;DHT22;39886;47.984;-1.586;2023-04-24T00:31:15;18.30;64.40
53978;DHT22;39886;47.984;-1.586;2023-04-24T00:33:41;18.30;64.40
53978;DHT22;39886;47.984;-1.586;2023-04-24T00:36:07;18.30;65.10
53978;DHT22;39886;47.984;-1.586;2023-04-24T00:38:33;18.30;64.40
53978;DHT22;39886;47.984;-1.586;2023-04-24T00:40:58;18.30;64.40
53978;DHT22;39886;47.984;-1.586;2023-04-24T00:43:25;18.30;64.40
53978;DHT22;39886;47.984;-1.586;2023-04-24T00:45:51;18.30;64.40
53978;DHT22;39886;47.984;-1.586;2023-04-24T00:48:17;18.30;64.40
53978;DHT22;39886;47.984;-1.586;2023-04-24T00:50:43;18.30;64.40
53978;DHT22;39886;47.984;-1.586;2023-04-24T00:53:09;18.30;64.40
53978;DHT22;39886;47.984;-1.586;2023-04-24T00:55:35;18.30;64.40
53978;DHT22;39886;47.984;-1.586;2023-04-24T00:58:02;18.30;64.40
53978;DHT22;39886;47.984;-1.586;2023-04-24T01:00:28;18.30;64.40
53978;DHT22;39886;47.984;-1.586;2023-04-24T01:02:55;18.30;64.40
53978;DHT22;39886;47.984;-1.586;2023-04-24T01:05:23;18.30;64.40
53978;DHT22;39886;47.984;-1.586;2023-04-24T01:07:49;18.30;64.40
53978;DHT22;39886;47.984;-1.586;2023-04-24T01:10:15;18.30;64.40
53978;DHT22;39886;47.984;-1.586;2023-04-24T01:12:42;18.30;64.40
53978;DHT22;39886;47.984;-1.586;2023-04-24T01:15:08;18.30;64.40
53978;DHT22;39886;47.984;-1.586;2023-04-24T01:17:34;18.20;64.40
53978;DHT22;39886;47.984;-1.586;2023-04-24T01:20:00;18.20;64.40
53978;DHT22;39886;47.984;-1.586;2023-04-24T01:22:26;18.20;64.40
53978;DHT22;39886;47.984;-1.586;2023-04-24T01:24:53;18.20;64.30
53978;DHT22;39886;47.984;-1.586;2023-04-24T01:27:19;18.20;64.30
53978;DHT22;39886;47.984;-1.586;2023-04-24T01:29:45;18.20;64.40
53978;DHT22;39886;47.984;-1.586;2023-04-24T01:32:13;18.20;64.40
53978;DHT22;39886;47.984;-1.586;2023-04-24T01:34:39;18.20;64.30
53978;DHT22;39886;47.984;-1.586;2023-04-24T01:37:05;18.20;64.40
53978;DHT22;39886;47.984;-1.586;2023-04-24T01:39:31;18.20;64.40
53978;DHT22;39886;47.984;-1.586;2023-04-24T01:41:59;18.20;64.40
53978;DHT22;39886;47.984;-1.586;2023-04-24T01:44:25;18.20;64.30
53978;DHT22;39886;47.984;-1.586;2023-04-24T01:46:51;18.20;64.40
53978;DHT22;39886;47.984;-1.586;2023-04-24T01:49:19;18.20;64.40
53978;DHT22;39886;47.984;-1.586;2023-04-24T01:51:45;18.20;64.40
53978;DHT22;39886;47.984;-1.586;2023-04-24T01:54:11;18.20;64.40
53978;DHT22;39886;47.984;-1.586;2023-04-24T01:56:41;18.20;64.40
53978;DHT22;39886;47.984;-1.586;2023-04-24T01:59:11;18.20;64.40
53978;DHT22;39886;47.984;-1.586;2023-04-24T02:01:38;18.20;64.30
53978;DHT22;39886;47.984;-1.586;2023-04-24T02:04:05;18.20;64.40
53978;DHT22;39886;47.984;-1.586;2023-04-24T02:06:31;18.20;64.30
53978;DHT22;39886;47.984;-1.586;2023-04-24T02:08:58;18.20;64.40
53978;DHT22;39886;47.984;-1.586;2023-04-24T02:11:24;18.20;64.40
53978;DHT22;39886;47.984;-1.586;2023-04-24T02:13:50;18.10;64.30
53978;DHT22;39886;47.984;-1.586;2023-04-24T02:16:17;18.20;64.40
53978;DHT22;39886;47.984;-1.586;2023-04-24T02:18:42;18.20;64.40
53978;DHT22;39886;47.984;-1.586;2023-04-24T02:21:08;18.10;64.40
53978;DHT22;39886;47.984;-1.586;2023-04-24T02:23:34;18.10;64.30
53978;DHT22;39886;47.984;-1.586;2023-04-24T02:26:00;18.10;64.30
53978;DHT22;39886;47.984;-1.586;2023-04-24T02:28:26;18.10;64.30
53978;DHT22;39886;47.984;-1.586;2023-04-24T02:30:52;18.10;64.30
53978;DHT22;39886;47.984;-1.586;2023-04-24T02:33:17;18.10;64.30
53978;DHT22;39886;47.984;-1.586;2023-04-24T02:35:43;18.10;64.30
53978;DHT22;39886;47.984;-1.586;2023-04-24T02:38:09;18.10;64.30
53978;DHT22;39886;47.984;-1.586;2023-04-24T02:40:34;18.10;64.30
53978;DHT22;39886;47.984;-1.586;2023-04-24T02:43:00;18.10;64.30
53978;DHT22;39886;47.984;-1.586;2023-04-24T02:45:26;18.10;64.30
53978;DHT22;39886;47.984;-1.586;2023-04-24T02:47:52;18.10;64.30
53978;DHT22;39886;47.984;-1.586;2023-04-24T02:50:17;18.10;64.30
53978;DHT22;39886;47.984;-1.586;2023-04-24T02:52:43;18.10;64.30
53978;DHT22;39886;47.984;-1.586;2023-04-24T02:55:09;18.10;64.40
53978;DHT22;39886;47.984;-1.586;2023-04-24T02:57:35;18.10;64.30
53978;DHT22;39886;47.984;-1.586;2023-04-24T03:00:00;18.10;64.40
53978;DHT22;39886;47.984;-1.586;2023-04-24T03:02:26;18.10;64.30
53978;DHT22;39886;47.984;-1.586;2023-04-24T03:04:52;18.10;64.30
53978;DHT22;39886;47.984;-1.586;2023-04-24T03:07:18;18.10;64.30
53978;DHT22;39886;47.984;-1.586;2023-04-24T03:09:46;18.10;64.30
53978;DHT22;39886;47.984;-1.586;2023-04-24T03:12:12;18.10;64.30
53978;DHT22;39886;47.984;-1.586;2023-04-24T03:14:38;18.10;64.30
53978;DHT22;39886;47.984;-1.586;2023-04-24T03:17:04;18.10;64.30
53978;DHT22;39886;47.984;-1.586;2023-04-24T03:19:29;18.00;64.30
53978;DHT22;39886;47.984;-1.586;2023-04-24T03:21:55;18.00;64.30
53978;DHT22;39886;47.984;-1.586;2023-04-24T03:24:21;18.00;64.30
53978;DHT22;39886;47.984;-1.586;2023-04-24T03:26:47;18.00;64.30
53978;DHT22;39886;47.984;-1.586;2023-04-24T03:29:13;18.00;64.30
53978;DHT22;39886;47.984;-1.586;2023-04-24T03:31:39;18.00;64.30
53978;DHT22;39886;47.984;-1.586;2023-04-24T03:34:05;18.00;64.30
53978;DHT22;39886;47.984;-1.586;2023-04-24T03:36:30;18.00;64.30
53978;DHT22;39886;47.984;-1.586;2023-04-24T03:38:57;18.00;64.30
53978;DHT22;39886;47.984;-1.586;2023-04-24T03:41:22;18.00;64.30
53978;DHT22;39886;47.984;-1.586;2023-04-24T03:43:48;18.00;64.30
53978;DHT22;39886;47.984;-1.586;2023-04-24T03:46:14;18.00;64.30
53978;DHT22;39886;47.984;-1.586;2023-04-24T03:48:40;18.00;64.30
53978;DHT22;39886;47.984;-1.586;2023-04-24T03:51:06;18.00;64.30
53978;DHT22;39886;47.984;-1.586;2023-04-24T03:53:31;18.00;64.30
53978;DHT22;39886;47.984;-1.586;2023-04-24T03:55:57;18.00;64.30
53978;DHT22;39886;47.984;-1.586;2023-04-24T03:58:23;18.00;64.30
53978;DHT22;39886;47.984;-1.586;2023-04-24T04:00:49;18.00;64.30
53978;DHT22;39886;47.984;-1.586;2023-04-24T04:03:15;18.00;64.30
53978;DHT22;39886;47.984;-1.586;2023-04-24T04:05:40;18.00;64.30
53978;DHT22;39886;47.984;-1.586;2023-04-24T04:08:06;18.00;64.30
53978;DHT22;39886;47.984;-1.586;2023-04-24T04:10:32;18.00;65.00
53978;DHT22;39886;47.984;-1.586;2023-04-24T04:12:58;18.00;64.30
53978;DHT22;39886;47.984;-1.586;2023-04-24T04:15:23;18.00;64.30
53978;DHT22;39886;47.984;-1.586;2023-04-24T04:17:49;18.00;64.30
53978;DHT22;39886;47.984;-1.586;2023-04-24T04:20:15;18.00;64.30
53978;DHT22;39886;47.984;-1.586;2023-04-24T04:22:40;18.00;64.30
53978;DHT22;39886;47.984;-1.586;2023-04-24T04:25:06;18.00;64.30
53978;DHT22;39886;47.984;-1.586;2023-04-24T04:27:34;18.00;64.30
53978;DHT22;39886;47.984;-1.586;2023-04-24T04:30:00;18.00;64.30
53978;DHT22;39886;47.984;-1.586;2023-04-24T04:32:33;18.00;64.30
53978;DHT22;39886;47.984;-1.586;2023-04-24T04:34:59;18.00;64.30
53978;DHT22;39886;47.984;-1.586;2023-04-24T04:37:32;18.00;64.30
53978;DHT22;39886;47.984;-1.586;2023-04-24T04:39:59;18.00;64.30
53978;DHT22;39886;47.984;-1.586;2023-04-24T04:42:25;17.90;64.20
53978;DHT22;39886;47.984;-1.586;2023-04-24T04:44:52;18.00;64.30
53978;DHT22;39886;47.984;-1.586;2023-04-24T04:47:20;18.00;64.90
53978;DHT22;39886;47.984;-1.586;2023-04-24T04:49:47;17.90;64.20
53978;DHT22;39886;47.984;-1.586;2023-04-24T04:52:13;18.00;64.30
53978;DHT22;39886;47.984;-1.586;2023-04-24T04:54:39;17.90;64.20
53978;DHT22;39886;47.984;-1.586;2023-04-24T04:57:05;17.90;64.20
53978;DHT22;39886;47.984;-1.586;2023-04-24T04:59:31;17.90;64.20
53978;DHT22;39886;47.984;-1.586;2023-04-24T05:01:57;18.00;64.30
53978;DHT22;39886;47.984;-1.586;2023-04-24T05:04:23;17.90;64.20
53978;DHT22;39886;47.984;-1.586;2023-04-24T05:06:48;17.90;64.20
53978;DHT22;39886;47.984;-1.586;2023-04-24T05:09:16;17.90;64.20
53978;DHT22;39886;47.984;-1.586;2023-04-24T05:11:42;17.90;64.20
53978;DHT22;39886;47.984;-1.586;2023-04-24T05:14:07;17.90;64.20
53978;DHT22;39886;47.984;-1.586;2023-04-24T05:16:33;17.90;64.20
53978;DHT22;39886;47.984;-1.586;2023-04-24T05:18:59;17.90;64.20
53978;DHT22;39886;47.984;-1.586;2023-04-24T05:21:25;17.90;64.20
53978;DHT22;39886;47.984;-1.586;2023-04-24T05:23:52;17.90;64.20
53978;DHT22;39886;47.984;-1.586;2023-04-24T05:26:18;17.90;64.20
53978;DHT22;39886;47.984;-1.586;2023-04-24T05:28:43;17.90;64.20
53978;DHT22;39886;47.984;-1.586;2023-04-24T05:31:09;17.90;64.20
53978;DHT22;39886;47.984;-1.586;2023-04-24T05:33:35;17.90;64.20
53978;DHT22;39886;47.984;-1.586;2023-04-24T05:36:00;17.90;64.20
53978;DHT22;39886;47.984;-1.586;2023-04-24T05:38:26;17.90;64.10
53978;DHT22;39886;47.984;-1.586;2023-04-24T05:40:52;17.90;64.20
53978;DHT22;39886;47.984;-1.586;2023-04-24T05:43:17;17.90;64.10
53978;DHT22;39886;47.984;-1.586;2023-04-24T05:45:43;17.90;64.20
53978;DHT22;39886;47.984;-1.586;2023-04-24T05:48:09;17.90;64.10
53978;DHT22;39886;47.984;-1.586;2023-04-24T05:50:35;17.90;64.10
53978;DHT22;39886;47.984;-1.586;2023-04-24T05:53:01;17.90;64.10
53978;DHT22;39886;47.984;-1.586;2023-04-24T05:55:30;17.90;64.10
53978;DHT22;39886;47.984;-1.586;2023-04-24T05:57:56;17.90;64.10
53978;DHT22;39886;47.984;-1.586;2023-04-24T06:00:23;17.90;64.10
53978;DHT22;39886;47.984;-1.586;2023-04-24T06:02:49;17.90;64.10
53978;DHT22;39886;47.984;-1.586;2023-04-24T06:05:15;17.90;64.00
53978;DHT22;39886;47.984;-1.586;2023-04-24T06:07:40;17.90;64.00
53978;DHT22;39886;47.984;-1.586;2023-04-24T06:10:07;17.90;64.00
53978;DHT22;39886;47.984;-1.586;2023-04-24T06:12:33;18.00;64.00
53978;DHT22;39886;47.984;-1.586;2023-04-24T06:14:58;18.00;64.00
53978;DHT22;39886;47.984;-1.586;2023-04-24T06:17:25;18.00;64.00
53978;DHT22;39886;47.984;-1.586;2023-04-24T06:19:51;18.00;63.90
53978;DHT22;39886;47.984;-1.586;2023-04-24T06:22:17;18.10;63.90
53978;DHT22;39886;47.984;-1.586;2023-04-24T06:24:42;18.10;63.80
53978;DHT22;39886;47.984;-1.586;2023-04-24T06:27:08;18.10;63.90
53978;DHT22;39886;47.984;-1.586;2023-04-24T06:29:35;18.20;63.80
53978;DHT22;39886;47.984;-1.586;2023-04-24T06:32:01;18.20;63.80
53978;DHT22;39886;47.984;-1.586;2023-04-24T06:34:26;18.20;63.60
53978;DHT22;39886;47.984;-1.586;2023-04-24T06:36:52;18.20;63.50
53978;DHT22;39886;47.984;-1.586;2023-04-24T06:39:18;18.30;63.60
53978;DHT22;39886;47.984;-1.586;2023-04-24T06:41:43;18.30;63.60
53978;DHT22;39886;47.984;-1.586;2023-04-24T06:44:09;18.30;63.60
53978;DHT22;39886;47.984;-1.586;2023-04-24T06:46:35;18.30;63.60
53978;DHT22;39886;47.984;-1.586;2023-04-24T06:49:01;18.40;63.60
53978;DHT22;39886;47.984;-1.586;2023-04-24T06:51:27;18.40;63.50
53978;DHT22;39886;47.984;-1.586;2023-04-24T06:53:53;18.50;63.40
53978;DHT22;39886;47.984;-1.586;2023-04-24T06:56:19;18.50;63.20
53978;DHT22;39886;47.984;-1.586;2023-04-24T06:58:46;18.60;63.40
53978;DHT22;39886;47.984;-1.586;2023-04-24T07:01:11;18.60;63.30
53978;DHT22;39886;47.984;-1.586;2023-04-24T07:03:37;18.60;63.30
53978;DHT22;39886;47.984;-1.586;2023-04-24T07:06:04;18.70;63.50
53978;DHT22;39886;47.984;-1.586;2023-04-24T07:08:30;18.70;63.40
53978;DHT22;39886;47.984;-1.586;2023-04-24T07:10:59;18.80;63.40
53978;DHT22;39886;47.984;-1.586;2023-04-24T07:13:25;18.80;63.30
53978;DHT22;39886;47.984;-1.586;2023-04-24T07:15:51;18.90;63.30
53978;DHT22;39886;47.984;-1.586;2023-04-24T07:18:22;18.90;63.90
53978;DHT22;39886;47.984;-1.586;2023-04-24T07:20:48;18.90;63.20
53978;DHT22;39886;47.984;-1.586;2023-04-24T07:23:16;18.90;63.30
53978;DHT22;39886;47.984;-1.586;2023-04-24T07:25:42;19.00;63.30
53978;DHT22;39886;47.984;-1.586;2023-04-24T07:28:08;19.00;63.20
53978;DHT22;39886;47.984;-1.586;2023-04-24T07:30:34;19.10;63.30
53978;DHT22;39886;47.984;-1.586;2023-04-24T07:32:59;19.10;63.20
53978;DHT22;39886;47.984;-1.586;2023-04-24T07:35:26;19.20;63.20
53978;DHT22;39886;47.984;-1.586;2023-04-24T07:37:55;19.20;63.80
53978;DHT22;39886;47.984;-1.586;2023-04-24T07:40:21;19.30;63.10
53978;DHT22;39886;47.984;-1.586;2023-04-24T07:42:47;19.30;63.00
53978;DHT22;39886;47.984;-1.586;2023-04-24T07:45:16;19.40;63.10
53978;DHT22;39886;47.984;-1.586;2023-04-24T07:47:42;19.40;63.00
53978;DHT22;39886;47.984;-1.586;2023-04-24T07:50:12;19.40;63.00
53978;DHT22;39886;47.984;-1.586;2023-04-24T07:52:38;19.50;63.00
53978;DHT22;39886;47.984;-1.586;2023-04-24T07:55:04;19.50;63.10
53978;DHT22;39886;47.984;-1.586;2023-04-24T07:57:30;19.60;63.20
53978;DHT22;39886;47.984;-1.586;2023-04-24T07:59:56;19.60;63.30
53978;DHT22;39886;47.984;-1.586;2023-04-24T08:02:22;19.60;63.10
53978;DHT22;39886;47.984;-1.586;2023-04-24T08:04:52;19.60;63.10
53978;DHT22;39886;47.984;-1.586;2023-04-24T08:07:19;19.70;63.20
53978;DHT22;39886;47.984;-1.586;2023-04-24T08:09:45;19.70;63.30
53978;DHT22;39886;47.984;-1.586;2023-04-24T08:12:11;19.70;63.00
53978;DHT22;39886;47.984;-1.586;2023-04-24T08:14:36;19.80;62.90
53978;DHT22;39886;47.984;-1.586;2023-04-24T08:17:02;19.80;63.00
53978;DHT22;39886;47.984;-1.586;2023-04-24T08:19:29;19.90;63.50
53978;DHT22;39886;47.984;-1.586;2023-04-24T08:21:54;19.90;63.40
53978;DHT22;39886;47.984;-1.586;2023-04-24T08:24:20;19.90;63.30
53978;DHT22;39886;47.984;-1.586;2023-04-24T08:26:46;19.90;63.50
53978;DHT22;39886;47.984;-1.586;2023-04-24T08:29:15;19.90;63.70
53978;DHT22;39886;47.984;-1.586;2023-04-24T08:31:41;20.00;63.50
53978;DHT22;39886;47.984;-1.586;2023-04-24T08:34:07;20.00;63.40
53978;DHT22;39886;47.984;-1.586;2023-04-24T08:36:33;20.00;63.30
53978;DHT22;39886;47.984;-1.586;2023-04-24T08:38:59;20.00;63.10
53978;DHT22;39886;47.984;-1.586;2023-04-24T08:41:25;20.00;63.10
53978;DHT22;39886;47.984;-1.586;2023-04-24T08:43:52;20.00;63.10
53978;DHT22;39886;47.984;-1.586;2023-04-24T08:46:19;20.10;63.20
53978;DHT22;39886;47.984;-1.586;2023-04-24T08:48:45;20.10;63.30
53978;DHT22;39886;47.984;-1.586;2023-04-24T08:51:11;20.10;63.20
53978;DHT22;39886;47.984;-1.586;2023-04-24T08:53:37;20.10;63.30
53978;DHT22;39886;47.984;-1.586;2023-04-24T08:56:03;20.20;63.10
53978;DHT22;39886;47.984;-1.586;2023-04-24T08:58:31;20.20;62.90
53978;DHT22;39886;47.984;-1.586;2023-04-24T09:00:57;20.30;63.00
53978;DHT22;39886;47.984;-1.586;2023-04-24T09:03:24;20.30;62.90
53978;DHT22;39886;47.984;-1.586;2023-04-24T09:05:54;20.30;62.70
53978;DHT22;39886;47.984;-1.586;2023-04-24T09:08:24;20.30;62.70
53978;DHT22;39886;47.984;-1.586;2023-04-24T09:10:51;20.40;62.80
53978;DHT22;39886;47.984;-1.586;2023-04-24T09:13:17;20.40;62.70
53978;DHT22;39886;47.984;-1.586;2023-04-24T09:15:44;20.40;62.80
53978;DHT22;39886;47.984;-1.586;2023-04-24T09:18:10;20.50;63.40
53978;DHT22;39886;47.984;-1.586;2023-04-24T09:21:02;20.40;62.80
53978;DHT22;39886;47.984;-1.586;2023-04-24T09:23:30;20.50;62.80
53978;DHT22;39886;47.984;-1.586;2023-04-24T09:25:57;20.50;62.80
53978;DHT22;39886;47.984;-1.586;2023-04-24T09:28:26;20.50;62.80
53978;DHT22;39886;47.984;-1.586;2023-04-24T09:31:13;20.60;62.70
53978;DHT22;39886;47.984;-1.586;2023-04-24T09:33:40;20.60;62.60
53978;DHT22;39886;47.984;-1.586;2023-04-24T09:36:06;20.60;62.60
53978;DHT22;39886;47.984;-1.586;2023-04-24T09:38:36;20.70;62.70
53978;DHT22;39886;47.984;-1.586;2023-04-24T09:41:05;20.70;62.70
53978;DHT22;39886;47.984;-1.586;2023-04-24T09:43:31;20.70;62.70
53978;DHT22;39886;47.984;-1.586;2023-04-24T09:45:58;20.70;62.90
53978;DHT22;39886;47.984;-1.586;2023-04-24T09:48:34;20.60;62.90
53978;DHT22;39886;47.984;-1.586;2023-04-24T09:51:04;20.60;62.90
53978;DHT22;39886;47.984;-1.586;2023-04-24T09:53:32;20.60;63.00
53978;DHT22;39886;47.984;-1.586;2023-04-24T09:56:10;20.70;63.20
53978;DHT22;39886;47.984;-1.586;2023-04-24T09:58:37;20.70;63.00
53978;DHT22;39886;47.984;-1.586;2023-04-24T10:01:03;20.70;63.10
53978;DHT22;39886;47.984;-1.586;2023-04-24T10:03:33;20.70;63.20
53978;DHT22;39886;47.984;-1.586;2023-04-24T10:06:00;20.70;63.10
53978;DHT22;39886;47.984;-1.586;2023-04-24T10:08:26;20.70;63.00
53978;DHT22;39886;47.984;-1.586;2023-04-24T10:10:58;20.70;63.00
53978;DHT22;39886;47.984;-1.586;2023-04-24T10:13:25;20.60;63.10
53978;DHT22;39886;47.984;-1.586;2023-04-24T10:15:51;20.70;63.20
53978;DHT22;39886;47.984;-1.586;2023-04-24T10:18:17;20.60;63.10
53978;DHT22;39886;47.984;-1.586;2023-04-24T10:20:45;20.60;63.10
53978;DHT22;39886;47.984;-1.586;2023-04-24T10:23:11;20.60;63.10
53978;DHT22;39886;47.984;-1.586;2023-04-24T10:25:37;20.60;63.10
53978;DHT22;39886;47.984;-1.586;2023-04-24T10:28:03;20.60;63.00
53978;DHT22;39886;47.984;-1.586;2023-04-24T10:30:34;20.60;63.00
53978;DHT22;39886;47.984;-1.586;2023-04-24T10:33:03;20.60;63.10
53978;DHT22;39886;47.984;-1.586;2023-04-24T10:35:31;20.60;62.90
53978;DHT22;39886;47.984;-1.586;2023-04-24T10:38:15;20.60;62.90
53978;DHT22;39886;47.984;-1.586;2023-04-24T10:40:42;20.60;62.90
53978;DHT22;39886;47.984;-1.586;2023-04-24T10:43:09;20.60;62.80
53978;DHT22;39886;47.984;-1.586;2023-04-24T10:45:37;20.60;62.80
53978;DHT22;39886;47.984;-1.586;2023-04-24T10:48:08;20.60;62.80
53978;DHT22;39886;47.984;-1.586;2023-04-24T10:50:43;20.60;62.70
53978;DHT22;39886;47.984;-1.586;2023-04-24T10:53:16;20.60;62.70
53978;DHT22;39886;47.984;-1.586;2023-04-24T10:58:13;20.60;62.50
53978;DHT22;39886;47.984;-1.586;2023-04-24T11:00:40;20.60;62.50
53978;DHT22;39886;47.984;-1.586;2023-04-24T11:03:25;20.60;62.50
53978;DHT22;39886;47.984;-1.586;2023-04-24T11:05:55;20.60;62.50
53978;DHT22;39886;47.984;-1.586;2023-04-24T11:08:29;20.60;62.50
53978;DHT22;39886;47.984;-1.586;2023-04-24T11:13:25;20.50;62.40
53978;DHT22;39886;47.984;-1.586;2023-04-24T11:19:18;20.60;62.40
53978;DHT22;39886;47.984;-1.586;2023-04-24T11:32:38;20.60;62.30
53978;DHT22;39886;47.984;-1.586;2023-04-24T11:37:40;20.60;62.20
53978;DHT22;39886;47.984;-1.586;2023-04-24T11:40:08;20.60;62.20
53978;DHT22;39886;47.984;-1.586;2023-04-24T11:42:37;20.60;62.20
53978;DHT22;39886;47.984;-1.586;2023-04-24T11:45:08;20.60;62.20
53978;DHT22;39886;47.984;-1.586;2023-04-24T11:47:34;20.60;62.30
53978;DHT22;39886;47.984;-1.586;2023-04-24T11:50:01;20.60;62.20
53978;DHT22;39886;47.984;-1.586;2023-04-24T11:52:28;20.70;62.20
53978;DHT22;39886;47.984;-1.586;2023-04-24T11:54:54;20.70;62.20
53978;DHT22;39886;47.984;-1.586;2023-04-24T11:57:21;20.70;62.30
53978;DHT22;39886;47.984;-1.586;2023-04-24T11:59:47;20.70;62.10
53978;DHT22;39886;47.984;-1.586;2023-04-24T12:02:27;20.70;62.10
53978;DHT22;39886;47.984;-1.586;2023-04-24T12:04:53;20.70;62.20
53978;DHT22;39886;47.984;-1.586;2023-04-24T12:07:19;20.70;62.40
53978;DHT22;39886;47.984;-1.586;2023-04-24T12:09:47;20.70;62.50
53978;DHT22;39886;47.984;-1.586;2023-04-24T12:12:15;20.70;62.40
53978;DHT22;39886;47.984;-1.586;2023-04-24T12:14:54;20.70;62.40
53978;DHT22;39886;47.984;-1.586;2023-04-24T12:17:28;20.70;62.40
53978;DHT22;39886;47.984;-1.586;2023-04-24T12:19:59;20.70;62.40
53978;DHT22;39886;47.984;-1.586;2023-04-24T12:22:26;20.70;62.30
53978;DHT22;39886;47.984;-1.586;2023-04-24T12:25:03;20.80;62.40
53978;DHT22;39886;47.984;-1.586;2023-04-24T12:27:33;20.80;62.10
53978;DHT22;39886;47.984;-1.586;2023-04-24T12:30:00;20.80;62.20
53978;DHT22;39886;47.984;-1.586;2023-04-24T12:32:27;20.80;62.10
53978;DHT22;39886;47.984;-1.586;2023-04-24T12:34:54;20.80;62.20
53978;DHT22;39886;47.984;-1.586;2023-04-24T12:37:20;20.80;62.20
53978;DHT22;39886;47.984;-1.586;2023-04-24T12:40:08;20.80;62.30
53978;DHT22;39886;47.984;-1.586;2023-04-24T12:42:41;20.80;62.30
53978;DHT22;39886;47.984;-1.586;2023-04-24T12:45:07;20.90;62.50
53978;DHT22;39886;47.984;-1.586;2023-04-24T12:47:34;20.90;62.40
53978;DHT22;39886;47.984;-1.586;2023-04-24T12:50:01;20.90;62.40
53978;DHT22;39886;47.984;-1.586;2023-04-24T12:52:28;20.90;62.40
53978;DHT22;39886;47.984;-1.586;2023-04-24T12:54:56;20.90;62.30
53978;DHT22;39886;47.984;-1.586;2023-04-24T12:57:24;21.00;62.40
53978;DHT22;39886;47.984;-1.586;2023-04-24T12:59:50;21.00;62.30
53978;DHT22;39886;47.984;-1.586;2023-04-24T13:02:16;21.00;62.30
53978;DHT22;39886;47.984;-1.586;2023-04-24T13:04:46;21.00;62.30
53978;DHT22;39886;47.984;-1.586;2023-04-24T13:07:13;21.10;62.30
53978;DHT22;39886;47.984;-1.586;2023-04-24T13:09:39;21.10;62.20
53978;DHT22;39886;47.984;-1.586;2023-04-24T13:12:05;21.10;62.10
53978;DHT22;39886;47.984;-1.586;2023-04-24T13:14:32;21.10;62.10
53978;DHT22;39886;47.984;-1.586;2023-04-24T13:16:57;21.10;62.20
53978;DHT22;39886;47.984;-1.586;2023-04-24T13:19:27;21.20;62.10
53978;DHT22;39886;47.984;-1.586;2023-04-24T13:21:55;21.20;62.00
53978;DHT22;39886;47.984;-1.586;2023-04-24T13:24:21;21.20;61.90
53978;DHT22;39886;47.984;-1.586;2023-04-24T13:26:50;21.30;61.90
53978;DHT22;39886;47.984;-1.586;2023-04-24T13:29:17;21.30;61.90
53978;DHT22;39886;47.984;-1.586;2023-04-24T13:31:42;21.30;61.90
53978;DHT22;39886;47.984;-1.586;2023-04-24T13:34:08;21.30;61.90
53978;DHT22;39886;47.984;-1.586;2023-04-24T13:36:34;21.30;61.80
53978;DHT22;39886;47.984;-1.586;2023-04-24T13:39:00;21.30;61.70
53978;DHT22;39886;47.984;-1.586;2023-04-24T13:41:26;21.40;61.80
53978;DHT22;39886;47.984;-1.586;2023-04-24T13:43:52;21.40;61.70
53978;DHT22;39886;47.984;-1.586;2023-04-24T13:46:18;21.40;61.80
53978;DHT22;39886;47.984;-1.586;2023-04-24T13:48:43;21.30;61.80
53978;DHT22;39886;47.984;-1.586;2023-04-24T13:51:09;21.40;61.90
53978;DHT22;39886;47.984;-1.586;2023-04-24T13:53:35;21.40;62.00
53978;DHT22;39886;47.984;-1.586;2023-04-24T13:56:04;21.40;62.00
53978;DHT22;39886;47.984;-1.586;2023-04-24T13:58:31;21.30;61.90
53978;DHT22;39886;47.984;-1.586;2023-04-24T14:00:57;21.40;62.00
53978;DHT22;39886;47.984;-1.586;2023-04-24T14:03:23;21.30;62.00
53978;DHT22;39886;47.984;-1.586;2023-04-24T14:05:49;21.30;62.00
53978;DHT22;39886;47.984;-1.586;2023-04-24T14:08:15;21.40;62.10
53978;DHT22;39886;47.984;-1.586;2023-04-24T14:10:42;21.30;62.10
53978;DHT22;39886;47.984;-1.586;2023-04-24T14:13:08;21.40;62.30
53978;DHT22;39886;47.984;-1.586;2023-04-24T14:15:35;21.30;62.10
53978;DHT22;39886;47.984;-1.586;2023-04-24T14:18:01;21.30;62.20
53978;DHT22;39886;47.984;-1.586;2023-04-24T14:20:28;21.30;62.20
53978;DHT22;39886;47.984;-1.586;2023-04-24T14:22:54;21.30;62.20
53978;DHT22;39886;47.984;-1.586;2023-04-24T14:25:20;21.30;62.40
53978;DHT22;39886;47.984;-1.586;2023-04-24T14:27:45;21.30;62.40
53978;DHT22;39886;47.984;-1.586;2023-04-24T14:30:12;21.30;62.30
53978;DHT22;39886;47.984;-1.586;2023-04-24T14:32:39;21.30;62.40
53978;DHT22;39886;47.984;-1.586;2023-04-24T14:35:06;21.30;62.30
53978;DHT22;39886;47.984;-1.586;2023-04-24T14:37:32;21.30;63.00
53978;DHT22;39886;47.984;-1.586;2023-04-24T14:39:58;21.30;62.40
53978;DHT22;39886;47.984;-1.586;2023-04-24T14:42:23;21.30;62.20
53978;DHT22;39886;47.984;-1.586;2023-04-24T14:44:49;21.30;62.20
53978;DHT22;39886;47.984;-1.586;2023-04-24T14:47:16;21.30;62.20
53978;DHT22;39886;47.984;-1.586;2023-04-24T14:49:43;21.30;62.20
53978;DHT22;39886;47.984;-1.586;2023-04-24T14:52:10;21.30;62.20
53978;DHT22;39886;47.984;-1.586;2023-04-24T14:54:36;21.30;62.30
53978;DHT22;39886;47.984;-1.586;2023-04-24T14:57:01;21.20;62.10
53978;DHT22;39886;47.984;-1.586;2023-04-24T14:59:28;21.20;62.20
53978;DHT22;39886;47.984;-1.586;2023-04-24T15:01:54;21.20;62.20
53978;DHT22;39886;47.984;-1.586;2023-04-24T15:04:24;21.20;62.20
53978;DHT22;39886;47.984;-1.586;2023-04-24T15:06:51;21.20;62.20
53978;DHT22;39886;47.984;-1.586;2023-04-24T15:09:18;21.20;62.20
53978;DHT22;39886;47.984;-1.586;2023-04-24T15:11:43;21.10;62.20
53978;DHT22;39886;47.984;-1.586;2023-04-24T15:14:09;21.10;62.60
53978;DHT22;39886;47.984;-1.586;2023-04-24T15:16:35;21.10;62.50
53978;DHT22;39886;47.984;-1.586;2023-04-24T15:19:01;21.10;62.50
53978;DHT22;39886;47.984;-1.586;2023-04-24T15:21:27;21.10;62.50
53978;DHT22;39886;47.984;-1.586;2023-04-24T15:23:53;21.10;62.50
53978;DHT22;39886;47.984;-1.586;2023-04-24T15:26:18;21.10;62.60
53978;DHT22;39886;47.984;-1.586;2023-04-24T15:28:45;21.10;62.50
53978;DHT22;39886;47.984;-1.586;2023-04-24T15:31:12;21.10;62.50
53978;DHT22;39886;47.984;-1.586;2023-04-24T15:33:38;21.10;62.50
53978;DHT22;39886;47.984;-1.586;2023-04-24T15:36:04;21.10;62.50